sensor_id;sensor_type;location;lat;lon;timestamp;pressure;altitude;pressure_sealevel;temperature;humidity
25584;BME280;13463;51.526;9.928;2024-01-10T00:02:22;101548.91;;;-7.72;100.00
25584;BME280;13463;51.526;9.928;2024-01-10T00:04:49;101548.22;;;-7.68;100.00
25584;BME280;13463;51.526;9.928;2024-01-10T00:07:16;101543.75;;;-7.72;100.00
25584;BME280;13463;51.526;9.928;2024-01-10T00:09:42;101537.34;;;-7.82;100.00
25584;BME280;13463;51.526;9.928;2024-01-10T00:12:09;101541.59;;;-7.82;100.00
25584;BME280;13463;51.526;9.928;2024-01-10T00:14:35;101534.00;;;-7.79;100.00
25584;BME280;13463;51.526;9.928;2024-01-10T00:17:02;101532.44;;;-7.76;100.00
25584;BME280;13463;51.526;9.928;2024-01-10T00:19:30;101535.19;;;-7.71;100.00
25584;BME280;13463;51.526;9.928;2024-01-10T00:21:57;101533.97;;;-7.60;100.00
25584;BME280;13463;51.526;9.928;2024-01-10T00:24:23;101530.56;;;-7.59;100.00
25584;BME280;13463;51.526;9.928;2024-01-10T00:26:50;101533.69;;;-7.66;100.00
25584;BME280;13463;51.526;9.928;2024-01-10T00:29:16;101543.47;;;-7.78;100.00
25584;BME280;13463;51.526;9.928;2024-01-10T00:31:43;101528.03;;;-7.78;100.00
25584;BME280;13463;51.526;9.928;2024-01-10T00:34:10;101534.22;;;-7.75;100.00
25584;BME280;13463;51.526;9.928;2024-01-10T00:36:36;101531.06;;;-7.68;100.00
25584;BME280;13463;51.526;9.928;2024-01-10T00:39:03;101528.69;;;-7.63;100.00
25584;BME280;13463;51.526;9.928;2024-01-10T00:41:30;101529.31;;;-7.69;100.00
25584;BME280;13463;51.526;9.928;2024-01-10T00:43:56;101527.94;;;-7.61;100.00
25584;BME280;13463;51.526;9.928;2024-01-10T00:46:23;101523.75;;;-7.78;100.00
25584;BME280;13463;51.526;9.928;2024-01-10T00:48:49;101524.72;;;-7.76;100.00
25584;BME280;13463;51.526;9.928;2024-01-10T00:51:16;101520.00;;;-7.86;100.00
25584;BME280;13463;51.526;9.928;2024-01-10T00:53:42;101531.06;;;-8.07;100.00
25584;BME280;13463;51.526;9.928;2024-01-10T00:56:09;101522.81;;;-8.20;100.00
25584;BME280;13463;51.526;9.928;2024-01-10T00:58:35;101525.44;;;-8.18;100.00
25584;BME280;13463;51.526;9.928;2024-01-10T01:01:02;101525.38;;;-8.00;100.00
25584;BME280;13463;51.526;9.928;2024-01-10T01:03:29;101528.25;;;-7.93;100.00
25584;BME280;13463;51.526;9.928;2024-01-10T01:05:55;101518.59;;;-7.98;100.00
25584;BME280;13463;51.526;9.928;2024-01-10T01:08:23;101514.91;;;-7.84;100.00
25584;BME280;13463;51.526;9.928;2024-01-10T01:10:50;101514.22;;;-7.80;100.00
25584;BME280;13463;51.526;9.928;2024-01-10T01:13:16;101514.75;;;-7.68;100.00
25584;BME280;13463;51.526;9.928;2024-01-10T01:15:43;101513.56;;;-7.76;100.00
25584;BME280;13463;51.526;9.928;2024-01-10T01:18:10;101507.50;;;-7.77;100.00
25584;BME280;13463;51.526;9.928;2024-01-10T01:20:39;101502.28;;;-7.78;100.00
25584;BME280;13463;51.526;9.928;2024-01-10T01:23:06;101506.34;;;-7.83;100.00
25584;BME280;13463;51.526;9.928;2024-01-10T01:25:32;101514.59;;;-7.71;100.00
25584;BME280;13463;51.526;9.928;2024-01-10T01:27:59;101504.28;;;-7.71;100.00
25584;BME280;13463;51.526;9.928;2024-01-10T01:30:25;101508.09;;;-8.03;100.00
25584;BME280;13463;51.526;9.928;2024-01-10T01:32:52;101503.00;;;-8.21;100.00
25584;BME280;13463;51.526;9.928;2024-01-10T01:35:19;101507.84;;;-8.28;100.00
25584;BME280;13463;51.526;9.928;2024-01-10T01:37:49;101509.88;;;-8.40;100.00
25584;BME280;13463;51.526;9.928;2024-01-10T01:40:18;101502.22;;;-8.39;100.00
25584;BME280;13463;51.526;9.928;2024-01-10T01:42:47;101501.97;;;-8.45;100.00
25584;BME280;13463;51.526;9.928;2024-01-10T01:45:14;101497.75;;;-8.43;100.00
25584;BME280;13463;51.526;9.928;2024-01-10T01:47:41;101496.88;;;-8.43;100.00
25584;BME280;13463;51.526;9.928;2024-01-10T01:50:08;101494.38;;;-7.83;100.00
25584;BME280;13463;51.526;9.928;2024-01-10T01:52:35;101491.75;;;-7.84;100.00
25584;BME280;13463;51.526;9.928;2024-01-10T01:55:03;101488.09;;;-7.89;100.00
25584;BME280;13463;51.526;9.928;2024-01-10T01:57:30;101484.97;;;-8.01;100.00
25584;BME280;13463;51.526;9.928;2024-01-10T01:59:57;101488.91;;;-8.09;100.00
25584;BME280;13463;51.526;9.928;2024-01-10T02:02:24;101490.41;;;-8.15;100.00
25584;BME280;13463;51.526;9.928;2024-01-10T02:04:51;101492.59;;;-8.24;100.00
25584;BME280;13463;51.526;9.928;2024-01-10T02:07:18;101493.00;;;-8.34;100.00
25584;BME280;13463;51.526;9.928;2024-01-10T02:09:44;101484.91;;;-8.43;100.00
25584;BME280;13463;51.526;9.928;2024-01-10T02:12:11;101491.13;;;-8.38;100.00
25584;BME280;13463;51.526;9.928;2024-01-10T02:14:38;101481.63;;;-8.39;100.00
25584;BME280;13463;51.526;9.928;2024-01-10T02:17:04;101485.97;;;-8.38;100.00
25584;BME280;13463;51.526;9.928;2024-01-10T02:19:31;101477.72;;;-8.50;100.00
25584;BME280;13463;51.526;9.928;2024-01-10T02:21:58;101467.97;;;-8.57;100.00
25584;BME280;13463;51.526;9.928;2024-01-10T02:24:25;101470.75;;;-8.52;100.00
25584;BME280;13463;51.526;9.928;2024-01-10T02:26:52;101470.56;;;-8.38;100.00
25584;BME280;13463;51.526;9.928;2024-01-10T02:29:18;101466.75;;;-8.46;100.00
25584;BME280;13463;51.526;9.928;2024-01-10T02:31:45;101471.78;;;-8.49;100.00
25584;BME280;13463;51.526;9.928;2024-01-10T02:34:12;101465.25;;;-8.41;100.00
25584;BME280;13463;51.526;9.928;2024-01-10T02:36:38;101465.00;;;-8.47;100.00
25584;BME280;13463;51.526;9.928;2024-01-10T02:39:05;101477.19;;;-8.43;100.00
25584;BME280;13463;51.526;9.928;2024-01-10T02:41:32;101470.16;;;-8.47;100.00
25584;BME280;13463;51.526;9.928;2024-01-10T02:43:58;101468.72;;;-8.40;100.00
25584;BME280;13463;51.526;9.928;2024-01-10T02:46:26;101470.94;;;-8.48;100.00
25584;BME280;13463;51.526;9.928;2024-01-10T02:48:55;101472.59;;;-8.50;100.00
25584;BME280;13463;51.526;9.928;2024-01-10T02:51:23;101466.50;;;-8.52;100.00
25584;BME280;13463;51.526;9.928;2024-01-10T02:53:50;101471.78;;;-8.49;100.00
25584;BME280;13463;51.526;9.928;2024-01-10T02:56:16;101476.94;;;-8.49;100.00
25584;BME280;13463;51.526;9.928;2024-01-10T02:58:43;101475.50;;;-8.42;100.00
25584;BME280;13463;51.526;9.928;2024-01-10T03:01:09;101467.03;;;-8.40;100.00
25584;BME280;13463;51.526;9.928;2024-01-10T03:03:36;101460.41;;;-8.35;100.00
25584;BME280;13463;51.526;9.928;2024-01-10T03:06:03;101460.75;;;-8.26;100.00
25584;BME280;13463;51.526;9.928;2024-01-10T03:08:29;101460.00;;;-8.44;100.00
25584;BME280;13463;51.526;9.928;2024-01-10T03:10:56;101452.69;;;-8.54;100.00
25584;BME280;13463;51.526;9.928;2024-01-10T03:13:23;101461.59;;;-8.46;100.00
25584;BME280;13463;51.526;9.928;2024-01-10T03:15:49;101462.16;;;-8.34;100.00
25584;BME280;13463;51.526;9.928;2024-01-10T03:18:16;101446.06;;;-8.49;100.00
25584;BME280;13463;51.526;9.928;2024-01-10T03:20:42;101448.19;;;-8.39;100.00
25584;BME280;13463;51.526;9.928;2024-01-10T03:23:09;101447.00;;;-8.47;100.00
25584;BME280;13463;51.526;9.928;2024-01-10T03:25:35;101442.41;;;-8.54;100.00
25584;BME280;13463;51.526;9.928;2024-01-10T03:28:02;101444.69;;;-8.41;100.00
25584;BME280;13463;51.526;9.928;2024-01-10T03:30:29;101443.16;;;-8.56;100.00
25584;BME280;13463;51.526;9.928;2024-01-10T03:32:55;101441.84;;;-8.66;100.00
25584;BME280;13463;51.526;9.928;2024-01-10T03:35:22;101440.22;;;-8.64;100.00
25584;BME280;13463;51.526;9.928;2024-01-10T03:37:49;101448.34;;;-8.74;100.00
25584;BME280;13463;51.526;9.928;2024-01-10T03:40:15;101453.78;;;-8.68;100.00
25584;BME280;13463;51.526;9.928;2024-01-10T03:42:42;101454.19;;;-8.59;100.00
25584;BME280;13463;51.526;9.928;2024-01-10T03:45:08;101455.91;;;-8.58;100.00
25584;BME280;13463;51.526;9.928;2024-01-10T03:47:35;101454.19;;;-8.59;100.00
25584;BME280;13463;51.526;9.928;2024-01-10T03:50:01;101453.50;;;-8.55;100.00
25584;BME280;13463;51.526;9.928;2024-01-10T03:52:28;101459.72;;;-8.69;100.00
25584;BME280;13463;51.526;9.928;2024-01-10T03:54:55;101455.16;;;-8.55;100.00
25584;BME280;13463;51.526;9.928;2024-01-10T03:57:21;101443.88;;;-8.59;100.00
25584;BME280;13463;51.526;9.928;2024-01-10T03:59:48;101451.50;;;-8.60;100.00
25584;BME280;13463;51.526;9.928;2024-01-10T04:02:42;101447.09;;;-8.82;100.00
25584;BME280;13463;51.526;9.928;2024-01-10T04:05:10;101450.09;;;-8.92;100.00
25584;BME280;13463;51.526;9.928;2024-01-10T04:07:42;101451.19;;;-8.87;100.00
25584;BME280;13463;51.526;9.928;2024-01-10T04:10:10;101441.22;;;-8.79;100.00
25584;BME280;13463;51.526;9.928;2024-01-10T04:12:37;101434.13;;;-8.85;100.00
25584;BME280;13463;51.526;9.928;2024-01-10T04:15:04;101436.81;;;-8.82;100.00
25584;BME280;13463;51.526;9.928;2024-01-10T04:17:31;101431.78;;;-8.98;100.00
25584;BME280;13463;51.526;9.928;2024-01-10T04:19:58;101438.56;;;-9.00;100.00
25584;BME280;13463;51.526;9.928;2024-01-10T04:22:25;101445.19;;;-9.05;100.00
25584;BME280;13463;51.526;9.928;2024-01-10T04:24:51;101452.22;;;-9.01;100.00
25584;BME280;13463;51.526;9.928;2024-01-10T04:27:18;101445.31;;;-9.02;100.00
25584;BME280;13463;51.526;9.928;2024-01-10T04:29:44;101445.75;;;-8.93;100.00
25584;BME280;13463;51.526;9.928;2024-01-10T04:32:11;101441.00;;;-8.84;100.00
25584;BME280;13463;51.526;9.928;2024-01-10T04:34:38;101443.59;;;-8.65;100.00
25584;BME280;13463;51.526;9.928;2024-01-10T04:37:04;101441.56;;;-8.72;100.00
25584;BME280;13463;51.526;9.928;2024-01-10T04:39:36;101440.69;;;-8.72;100.00
25584;BME280;13463;51.526;9.928;2024-01-10T04:42:04;101438.34;;;-8.68;100.00
25584;BME280;13463;51.526;9.928;2024-01-10T04:44:31;101440.38;;;-8.80;100.00
25584;BME280;13463;51.526;9.928;2024-01-10T04:46:58;101434.47;;;-8.77;100.00
25584;BME280;13463;51.526;9.928;2024-01-10T04:49:25;101428.66;;;-8.73;100.00
25584;BME280;13463;51.526;9.928;2024-01-10T04:51:51;101426.03;;;-8.75;100.00
25584;BME280;13463;51.526;9.928;2024-01-10T04:54:18;101428.72;;;-8.72;100.00
25584;BME280;13463;51.526;9.928;2024-01-10T04:56:44;101432.50;;;-8.83;100.00
25584;BME280;13463;51.526;9.928;2024-01-10T04:59:11;101430.47;;;-8.90;100.00
25584;BME280;13463;51.526;9.928;2024-01-10T05:01:38;101439.94;;;-8.70;100.00
25584;BME280;13463;51.526;9.928;2024-01-10T05:04:04;101432.91;;;-8.74;100.00
25584;BME280;13463;51.526;9.928;2024-01-10T05:06:31;101423.97;;;-8.82;100.00
25584;BME280;13463;51.526;9.928;2024-01-10T05:08:57;101438.72;;;-8.97;100.00
25584;BME280;13463;51.526;9.928;2024-01-10T05:11:25;101429.91;;;-9.02;100.00
25584;BME280;13463;51.526;9.928;2024-01-10T05:13:54;101431.53;;;-9.04;100.00
25584;BME280;13463;51.526;9.928;2024-01-10T05:16:21;101435.56;;;-9.09;100.00
25584;BME280;13463;51.526;9.928;2024-01-10T05:18:48;101439.31;;;-9.20;100.00
25584;BME280;13463;51.526;9.928;2024-01-10T05:21:14;101422.41;;;-8.98;100.00
25584;BME280;13463;51.526;9.928;2024-01-10T05:23:41;101431.34;;;-8.90;100.00
25584;BME280;13463;51.526;9.928;2024-01-10T05:26:08;101432.53;;;-9.01;100.00
25584;BME280;13463;51.526;9.928;2024-01-10T05:28:34;101423.41;;;-8.94;100.00
25584;BME280;13463;51.526;9.928;2024-01-10T05:31:01;101436.34;;;-8.93;100.00
25584;BME280;13463;51.526;9.928;2024-01-10T05:33:27;101441.66;;;-9.07;100.00
25584;BME280;13463;51.526;9.928;2024-01-10T05:35:54;101440.22;;;-8.83;100.00
25584;BME280;13463;51.526;9.928;2024-01-10T05:38:21;101441.31;;;-8.78;100.00
25584;BME280;13463;51.526;9.928;2024-01-10T05:40:48;101438.97;;;-8.91;100.00
25584;BME280;13463;51.526;9.928;2024-01-10T05:43:14;101443.88;;;-8.78;100.00
25584;BME280;13463;51.526;9.928;2024-01-10T05:45:42;101445.75;;;-8.93;100.00
25584;BME280;13463;51.526;9.928;2024-01-10T05:48:08;101451.00;;;-9.09;100.00
25584;BME280;13463;51.526;9.928;2024-01-10T05:50:35;101447.84;;;-9.21;100.00
25584;BME280;13463;51.526;9.928;2024-01-10T05:53:02;101452.94;;;-9.04;100.00
25584;BME280;13463;51.526;9.928;2024-01-10T05:55:29;101453.91;;;-9.02;100.00
25584;BME280;13463;51.526;9.928;2024-01-10T05:57:55;101450.00;;;-8.94;100.00
25584;BME280;13463;51.526;9.928;2024-01-10T06:00:22;101439.72;;;-8.94;100.00
25584;BME280;13463;51.526;9.928;2024-01-10T06:02:48;101439.28;;;-8.85;100.00
25584;BME280;13463;51.526;9.928;2024-01-10T06:05:15;101448.88;;;-8.81;100.00
25584;BME280;13463;51.526;9.928;2024-01-10T06:07:42;101446.59;;;-8.75;100.00
25584;BME280;13463;51.526;9.928;2024-01-10T06:10:09;101433.06;;;-8.71;100.00
25584;BME280;13463;51.526;9.928;2024-01-10T06:12:36;101444.09;;;-8.73;100.00
25584;BME280;13463;51.526;9.928;2024-01-10T06:15:03;101445.34;;;-8.83;100.00
25584;BME280;13463;51.526;9.928;2024-01-10T06:17:29;101438.34;;;-8.68;100.00
25584;BME280;13463;51.526;9.928;2024-01-10T06:19:58;101434.94;;;-8.86;100.00
25584;BME280;13463;51.526;9.928;2024-01-10T06:22:26;101441.94;;;-8.82;100.00
25584;BME280;13463;51.526;9.928;2024-01-10T06:24:56;101435.25;;;-8.98;100.00
25584;BME280;13463;51.526;9.928;2024-01-10T06:27:22;101436.94;;;-8.98;100.00
25584;BME280;13463;51.526;9.928;2024-01-10T06:29:49;101435.34;;;-8.77;100.00
25584;BME280;13463;51.526;9.928;2024-01-10T06:32:15;101432.34;;;-8.86;100.00
25584;BME280;13463;51.526;9.928;2024-01-10T06:34:42;101436.00;;;-9.00;100.00
25584;BME280;13463;51.526;9.928;2024-01-10T06:37:08;101440.03;;;-9.05;100.00
25584;BME280;13463;51.526;9.928;2024-01-10T06:39:35;101435.28;;;-9.15;100.00
25584;BME280;13463;51.526;9.928;2024-01-10T06:42:02;101433.94;;;-9.07;100.00
25584;BME280;13463;51.526;9.928;2024-01-10T06:44:32;101445.66;;;-9.14;100.00
25584;BME280;13463;51.526;9.928;2024-01-10T06:47:00;101434.31;;;-9.00;100.00
25584;BME280;13463;51.526;9.928;2024-01-10T06:49:26;101425.19;;;-8.93;100.00
25584;BME280;13463;51.526;9.928;2024-01-10T06:51:54;101437.47;;;-9.05;100.00
25584;BME280;13463;51.526;9.928;2024-01-10T06:54:20;101439.81;;;-9.10;100.00
25584;BME280;13463;51.526;9.928;2024-01-10T06:56:47;101436.53;;;-9.07;100.00
25584;BME280;13463;51.526;9.928;2024-01-10T06:59:13;101440.03;;;-9.05;100.00
25584;BME280;13463;51.526;9.928;2024-01-10T07:01:40;101432.53;;;-9.01;100.00
25584;BME280;13463;51.526;9.928;2024-01-10T07:04:07;101434.63;;;-9.11;100.00
25584;BME280;13463;51.526;9.928;2024-01-10T07:06:33;101438.41;;;-9.03;100.00
25584;BME280;13463;51.526;9.928;2024-01-10T07:09:00;101438.81;;;-8.94;100.00
25584;BME280;13463;51.526;9.928;2024-01-10T07:11:26;101444.41;;;-8.85;100.00
25584;BME280;13463;51.526;9.928;2024-01-10T07:13:55;101442.94;;;-8.80;100.00
25584;BME280;13463;51.526;9.928;2024-01-10T07:16:22;101445.75;;;-8.93;100.00
25584;BME280;13463;51.526;9.928;2024-01-10T07:18:48;101449.94;;;-8.95;100.00
25584;BME280;13463;51.526;9.928;2024-01-10T07:21:18;101451.47;;;-8.99;100.00
25584;BME280;13463;51.526;9.928;2024-01-10T07:23:44;101453.97;;;-8.82;100.00
25584;BME280;13463;51.526;9.928;2024-01-10T07:26:13;101458.06;;;-8.86;100.00
25584;BME280;13463;51.526;9.928;2024-01-10T07:28:41;101459.19;;;-8.99;100.00
25584;BME280;13463;51.526;9.928;2024-01-10T07:31:08;101457.31;;;-8.84;100.00
25584;BME280;13463;51.526;9.928;2024-01-10T07:33:35;101456.44;;;-8.84;100.00
25584;BME280;13463;51.526;9.928;2024-01-10T07:36:02;101465.09;;;-8.82;100.00
25584;BME280;13463;51.526;9.928;2024-01-10T07:38:28;101458.78;;;-8.89;100.00
25584;BME280;13463;51.526;9.928;2024-01-10T07:40:55;101455.50;;;-8.67;100.00
25584;BME280;13463;51.526;9.928;2024-01-10T07:43:22;101445.56;;;-8.78;100.00
25584;BME280;13463;51.526;9.928;2024-01-10T07:45:49;101450.16;;;-8.71;100.00
25584;BME280;13463;51.526;9.928;2024-01-10T07:48:15;101445.63;;;-8.58;100.00
25584;BME280;13463;51.526;9.928;2024-01-10T07:50:42;101447.75;;;-8.68;100.00
25584;BME280;13463;51.526;9.928;2024-01-10T07:53:09;101454.19;;;-8.59;100.00
25584;BME280;13463;51.526;9.928;2024-01-10T07:55:35;101456.47;;;-8.46;100.00
25584;BME280;13463;51.526;9.928;2024-01-10T07:58:02;101456.34;;;-8.30;100.00
25584;BME280;13463;51.526;9.928;2024-01-10T08:00:29;101466.44;;;-8.34;100.00
25584;BME280;13463;51.526;9.928;2024-01-10T08:02:56;101467.56;;;-8.28;100.00
25584;BME280;13463;51.526;9.928;2024-01-10T08:05:24;101466.06;;;-8.23;100.00
25584;BME280;13463;51.526;9.928;2024-01-10T08:07:51;101464.97;;;-7.88;100.00
25584;BME280;13463;51.526;9.928;2024-01-10T08:10:18;101467.72;;;-7.83;100.00
25584;BME280;13463;51.526;9.928;2024-01-10T08:12:45;101465.63;;;-7.73;100.00
25584;BME280;13463;51.526;9.928;2024-01-10T08:15:11;101469.94;;;-7.92;100.00
25584;BME280;13463;51.526;9.928;2024-01-10T08:17:38;101466.47;;;-7.93;100.00
25584;BME280;13463;51.526;9.928;2024-01-10T08:20:08;101464.78;;;-7.92;100.00
25584;BME280;13463;51.526;9.928;2024-01-10T08:22:37;101467.72;;;-8.04;100.00
25584;BME280;13463;51.526;9.928;2024-01-10T08:25:04;101456.91;;;-7.95;100.00
25584;BME280;13463;51.526;9.928;2024-01-10T08:27:31;101459.50;;;-7.95;100.00
25584;BME280;13463;51.526;9.928;2024-01-10T08:29:58;101452.59;;;-7.96;100.00
25584;BME280;13463;51.526;9.928;2024-01-10T08:32:24;101461.41;;;-7.91;100.00
25584;BME280;13463;51.526;9.928;2024-01-10T08:34:51;101464.22;;;-7.85;100.00
25584;BME280;13463;51.526;9.928;2024-01-10T08:37:17;101456.91;;;-7.76;100.00
25584;BME280;13463;51.526;9.928;2024-01-10T08:39:44;101460.31;;;-7.76;100.00
25584;BME280;13463;51.526;9.928;2024-01-10T08:42:10;101467.31;;;-7.73;100.00
25584;BME280;13463;51.526;9.928;2024-01-10T08:44:38;101466.50;;;-7.72;100.00
25584;BME280;13463;51.526;9.928;2024-01-10T08:47:04;101458.44;;;-7.38;100.00
25584;BME280;13463;51.526;9.928;2024-01-10T08:49:31;101464.66;;;-7.54;100.00
25584;BME280;13463;51.526;9.928;2024-01-10T08:51:58;101464.38;;;-7.41;100.00
25584;BME280;13463;51.526;9.928;2024-01-10T08:54:24;101456.44;;;-7.46;100.00
25584;BME280;13463;51.526;9.928;2024-01-10T08:56:51;101444.59;;;-7.20;100.00
25584;BME280;13463;51.526;9.928;2024-01-10T08:59:17;101441.31;;;-7.16;100.00
25584;BME280;13463;51.526;9.928;2024-01-10T09:01:45;101440.16;;;-7.24;100.00
25584;BME280;13463;51.526;9.928;2024-01-10T09:04:12;101450.91;;;-7.34;100.00
25584;BME280;13463;51.526;9.928;2024-01-10T09:06:39;101451.25;;;-7.25;100.00
25584;BME280;13463;51.526;9.928;2024-01-10T09:09:05;101449.41;;;-7.07;100.00
25584;BME280;13463;51.526;9.928;2024-01-10T09:11:33;101447.78;;;-7.05;100.00
25584;BME280;13463;51.526;9.928;2024-01-10T09:14:05;101447.53;;;-6.89;98.29
25584;BME280;13463;51.526;9.928;2024-01-10T09:16:31;101444.28;;;-6.85;96.29
25584;BME280;13463;51.526;9.928;2024-01-10T09:18:58;101447.03;;;-6.56;96.35
25584;BME280;13463;51.526;9.928;2024-01-10T09:21:26;101444.81;;;-6.69;96.00
25584;BME280;13463;51.526;9.928;2024-01-10T09:23:53;101447.72;;;-6.60;95.27
25584;BME280;13463;51.526;9.928;2024-01-10T09:26:20;101437.66;;;-6.54;96.71
25584;BME280;13463;51.526;9.928;2024-01-10T09:28:46;101441.75;;;-6.59;95.31
25584;BME280;13463;51.526;9.928;2024-01-10T09:31:13;101445.34;;;-6.56;95.74
25584;BME280;13463;51.526;9.928;2024-01-10T09:33:40;101441.84;;;-6.34;94.18
25584;BME280;13463;51.526;9.928;2024-01-10T09:36:07;101438.53;;;-6.30;95.51
25584;BME280;13463;51.526;9.928;2024-01-10T09:38:37;101441.13;;;-6.05;94.68
25584;BME280;13463;51.526;9.928;2024-01-10T09:41:05;101438.47;;;-6.08;92.95
25584;BME280;13463;51.526;9.928;2024-01-10T09:43:33;101438.50;;;-5.81;91.79
25584;BME280;13463;51.526;9.928;2024-01-10T09:46:01;101434.94;;;-5.60;89.42
25584;BME280;13463;51.526;9.928;2024-01-10T09:48:31;101424.00;;;-5.51;84.94
25584;BME280;13463;51.526;9.928;2024-01-10T09:50:58;101434.28;;;-5.53;86.23
25584;BME280;13463;51.526;9.928;2024-01-10T09:53:26;101425.25;;;-5.40;83.78
25584;BME280;13463;51.526;9.928;2024-01-10T09:55:54;101426.66;;;-5.50;86.93
25584;BME280;13463;51.526;9.928;2024-01-10T09:58:23;101429.69;;;-5.34;87.14
25584;BME280;13463;51.526;9.928;2024-01-10T10:00:51;101430.06;;;-5.24;84.44
25584;BME280;13463;51.526;9.928;2024-01-10T10:03:19;101437.34;;;-5.38;85.88
25584;BME280;13463;51.526;9.928;2024-01-10T10:05:45;101423.91;;;-5.27;86.00
25584;BME280;13463;51.526;9.928;2024-01-10T10:08:14;101422.00;;;-5.06;84.32
25584;BME280;13463;51.526;9.928;2024-01-10T10:10:50;101413.09;;;-4.86;83.31
25584;BME280;13463;51.526;9.928;2024-01-10T10:13:27;101415.69;;;-5.14;82.47
25584;BME280;13463;51.526;9.928;2024-01-10T10:16:01;101412.25;;;-5.13;83.13
25584;BME280;13463;51.526;9.928;2024-01-10T10:18:29;101410.53;;;-5.14;82.93
25584;BME280;13463;51.526;9.928;2024-01-10T10:21:13;101407.03;;;-5.16;84.85
25584;BME280;13463;51.526;9.928;2024-01-10T10:23:42;101399.16;;;-4.91;85.33
25584;BME280;13463;51.526;9.928;2024-01-10T10:26:16;101396.13;;;-5.06;83.80
25584;BME280;13463;51.526;9.928;2024-01-10T10:28:50;101387.50;;;-4.77;84.31
25584;BME280;13463;51.526;9.928;2024-01-10T10:31:19;101394.34;;;-4.79;83.15
25584;BME280;13463;51.526;9.928;2024-01-10T10:33:48;101389.44;;;-5.00;83.44
25584;BME280;13463;51.526;9.928;2024-01-10T10:36:15;101393.09;;;-4.62;82.72
25584;BME280;13463;51.526;9.928;2024-01-10T10:38:42;101394.97;;;-4.27;80.52
25584;BME280;13463;51.526;9.928;2024-01-10T10:41:09;101396.97;;;-4.17;78.63
25584;BME280;13463;51.526;9.928;2024-01-10T10:43:38;101396.47;;;-4.66;80.50
25584;BME280;13463;51.526;9.928;2024-01-10T10:46:06;101403.66;;;-4.56;82.20
25584;BME280;13463;51.526;9.928;2024-01-10T10:48:33;101394.09;;;-4.58;81.12
25584;BME280;13463;51.526;9.928;2024-01-10T10:51:27;101379.22;;;-4.01;79.59
25584;BME280;13463;51.526;9.928;2024-01-10T10:53:51;101376.34;;;-3.79;77.35
25584;BME280;13463;51.526;9.928;2024-01-10T10:56:19;101374.78;;;-3.73;78.06
25584;BME280;13463;51.526;9.928;2024-01-10T10:58:46;101384.91;;;-4.15;78.74
25584;BME280;13463;51.526;9.928;2024-01-10T11:01:13;101380.72;;;-4.10;79.12
25584;BME280;13463;51.526;9.928;2024-01-10T11:03:41;101379.22;;;-4.01;77.82
25584;BME280;13463;51.526;9.928;2024-01-10T11:06:11;101382.63;;;-4.37;81.03
25584;BME280;13463;51.526;9.928;2024-01-10T11:14:21;101372.34;;;-4.01;80.45
25584;BME280;13463;51.526;9.928;2024-01-10T11:20:05;101361.09;;;-3.67;77.51
25584;BME280;13463;51.526;9.928;2024-01-10T11:25:44;101345.81;;;-3.91;80.59
25584;BME280;13463;51.526;9.928;2024-01-10T11:28:12;101340.75;;;-3.86;78.04
25584;BME280;13463;51.526;9.928;2024-01-10T11:30:49;101341.44;;;-3.93;80.71
25584;BME280;13463;51.526;9.928;2024-01-10T11:33:30;101344.06;;;-3.56;76.23
25584;BME280;13463;51.526;9.928;2024-01-10T11:39:05;101330.41;;;-3.49;76.01
25584;BME280;13463;51.526;9.928;2024-01-10T11:41:33;101338.44;;;-3.39;73.37
25584;BME280;13463;51.526;9.928;2024-01-10T11:46:38;101327.81;;;-3.49;74.43
25584;BME280;13463;51.526;9.928;2024-01-10T11:49:12;101333.88;;;-3.84;78.24
25584;BME280;13463;51.526;9.928;2024-01-10T11:51:47;101316.53;;;-3.51;77.45
25584;BME280;13463;51.526;9.928;2024-01-10T11:54:40;101324.28;;;-3.14;75.56
25584;BME280;13463;51.526;9.928;2024-01-10T11:57:21;101316.91;;;-3.34;77.57
25584;BME280;13463;51.526;9.928;2024-01-10T11:59:55;101326.03;;;-3.13;76.37
25584;BME280;13463;51.526;9.928;2024-01-10T12:02:22;101324.41;;;-3.08;77.34
25584;BME280;13463;51.526;9.928;2024-01-10T12:04:51;101325.06;;;-3.18;75.89
25584;BME280;13463;51.526;9.928;2024-01-10T12:07:19;101322.34;;;-3.22;77.90
25584;BME280;13463;51.526;9.928;2024-01-10T12:09:47;101321.34;;;-2.89;74.47
25584;BME280;13463;51.526;9.928;2024-01-10T12:12:14;101320.44;;;-2.92;76.16
25584;BME280;13463;51.526;9.928;2024-01-10T12:14:41;101313.63;;;-2.86;74.11
25584;BME280;13463;51.526;9.928;2024-01-10T12:17:10;101312.91;;;-2.79;75.23
25584;BME280;13463;51.526;9.928;2024-01-10T12:19:37;101313.13;;;-2.68;74.88
25584;BME280;13463;51.526;9.928;2024-01-10T12:22:05;101313.53;;;-2.92;73.41
25584;BME280;13463;51.526;9.928;2024-01-10T12:24:42;101306.81;;;-2.81;73.95
25584;BME280;13463;51.526;9.928;2024-01-10T12:27:16;101308.25;;;-2.51;73.86
25584;BME280;13463;51.526;9.928;2024-01-10T12:29:42;101301.44;;;-2.46;72.12
25584;BME280;13463;51.526;9.928;2024-01-10T12:32:09;101296.09;;;-2.52;71.18
25584;BME280;13463;51.526;9.928;2024-01-10T12:34:39;101308.34;;;-2.45;72.20
25584;BME280;13463;51.526;9.928;2024-01-10T12:37:06;101302.41;;;-2.38;71.97
25584;BME280;13463;51.526;9.928;2024-01-10T12:39:33;101308.53;;;-2.36;71.46
25584;BME280;13463;51.526;9.928;2024-01-10T12:42:00;101295.66;;;-2.29;72.05
25584;BME280;13463;51.526;9.928;2024-01-10T12:44:28;101292.97;;;-2.33;70.99
25584;BME280;13463;51.526;9.928;2024-01-10T12:46:56;101289.81;;;-2.17;70.68
25584;BME280;13463;51.526;9.928;2024-01-10T12:49:23;101293.09;;;-2.27;70.80
25584;BME280;13463;51.526;9.928;2024-01-10T12:51:50;101284.16;;;-1.92;69.17
25584;BME280;13463;51.526;9.928;2024-01-10T12:54:17;101286.78;;;-1.90;68.68
25584;BME280;13463;51.526;9.928;2024-01-10T12:56:44;101286.69;;;-1.98;68.72
25584;BME280;13463;51.526;9.928;2024-01-10T12:59:11;101293.56;;;-2.00;70.04
25584;BME280;13463;51.526;9.928;2024-01-10T13:01:39;101289.44;;;-1.87;69.72
25584;BME280;13463;51.526;9.928;2024-01-10T13:04:05;101283.47;;;-1.82;69.97